VOHY/HYD METAR and TAF weather

Enter ICAO airport designator
Station Type Date Time Source
VOHY METAR 2023/09/26 16:00 UTC NOAA

VOHY 261600Z VRB02KT 5000 HZ SCT015 BKN100 25/23 Q1011 NOSIG


Station Type Date Time Source
VOHY Decoded METAR 2023/09/26 16:00 UTC NOAA

Hyderabad Airport, India (VOHY) 17-27N 078-28E 545M
Sep 26, 2023 - 12:00 PM EDT / 2023.09.26 1600 UTC
Wind: Variable at 2 MPH (2 KT):0
Visibility: 3 mile(s):0
Sky conditions: mostly cloudy
Weather: haze
Temperature: 77 F (25 C)
Dew Point: 73 F (23 C)
Relative Humidity: 88%
Pressure (altimeter): 29.85 in. Hg (1011 hPa)
ob: VOHY 261600Z VRB02KT 5000 HZ SCT015 BKN100 25/23 Q1011 NOSIG
cycle: 16

Station Type Date Time Source
VOHY TAF 2023/09/08 12:00 UTC NOAA

TAF VOHY 081100Z 0812/0821 26010KT 5000 HZ DZ SCT010 SCT015 OVC080
TEMPO 0814/0818 27010KT 5000 DZ BR SCT010 FEW030CB BKN080
BECMG 0818/0820 23012KT 3000 -DZ HZ SCT015 BKN080

Example: see airport list